KEKN/EKN METAR and TAF weather

Enter ICAO airport designator
Station Type Date Time Source
KEKN METAR 2018/12/12 16:51 UTC NOAA

KEKN 121651Z AUTO 16005KT 10SM CLR 03/M06 A3007 RMK AO2 SLP204 T00281056 TSNO


Station Type Date Time Source
KEKN Decoded METAR 2018/12/12 16:51 UTC NOAA

JENNINGS RANDOLPH FIELD, WV, United States (KEKN) 38-53N 079-51W 603M
Dec 12, 2018 - 11:51 AM EST / 2018.12.12 1651 UTC
Wind: from the SSE (160 degrees) at 6 MPH (5 KT):0
Visibility: 10 mile(s):0
Sky conditions: clear
Temperature: 37.0 F (2.8 C)
Dew Point: 21.9 F (-5.6 C)
Relative Humidity: 53%
Pressure (altimeter): 30.07 in. Hg (1018 hPa)
ob: KEKN 121651Z AUTO 16005KT 10SM CLR 03/M06 A3007 RMK AO2 SLP204 T00281056 TSNO
cycle: 17

Station Type Date Time Source
KEKN TAF 2018/12/12 15:54 UTC NOAA

TAF
AMD KEKN 121452Z 1215/1312 VRB03KT P6SM SCT200
FM121800 21008KT P6SM BKN120
FM130200 VRB03KT P6SM BKN070
FM130800 00000KT P6SM BKN025
FM131000 00000KT P6SM BKN015


Example: see airport list